Time;durP1;ratioP1;P1;durP2;ratioP2;P2;SDS_P1;SDS_P2;PMS_P1;PMS_P2;Temp;Humidity;BMP_temperature;BMP_pressure;BME280_temperature;BME280_humidity;BME280_pressure;Samples;Min_cycle;Max_cycle;Signal;HPM_P1;HPM_P2
2022/05/21 00:02:09;;;;;;;7.47;3.88;;;10.80;90.30;;;;;;5038102;28;20469;-46
2022/05/21 00:04:36;;;;;;;5.53;3.05;;;10.80;90.50;;;;;;5049690;28;20145;-45
2022/05/21 00:07:03;;;;;;;6.00;3.05;;;10.80;90.50;;;;;;5031838;28;20049;-47
2022/05/21 00:09:28;;;;;;;9.30;2.72;;;10.70;90.40;;;;;;5029296;28;20086;-46
2022/05/21 00:11:56;;;;;;;10.40;4.03;;;10.70;90.10;;;;;;5042057;28;20461;-51
2022/05/21 00:14:22;;;;;;;7.03;2.80;;;10.60;90.00;;;;;;5031264;28;20107;-46
2022/05/21 00:16:48;;;;;;;11.60;3.00;;;10.60;90.10;;;;;;5028911;28;20479;-48
2022/05/21 00:19:14;;;;;;;4.50;2.22;;;10.60;90.00;;;;;;5030060;28;20030;-47
2022/05/21 00:21:40;;;;;;;6.93;3.03;;;10.50;89.90;;;;;;5039570;28;20040;-46
2022/05/21 00:24:06;;;;;;;9.40;2.33;;;10.50;90.00;;;;;;5032166;28;20465;-47
2022/05/21 00:26:31;;;;;;;8.02;2.13;;;10.60;90.00;;;;;;5043538;28;20060;-46
2022/05/21 00:28:57;;;;;;;5.13;2.28;;;10.50;89.90;;;;;;5028710;28;20041;-46
2022/05/21 00:31:22;;;;;;;8.13;2.13;;;10.50;89.80;;;;;;5041823;28;20112;-49
2022/05/21 00:33:49;;;;;;;5.70;2.78;;;10.40;89.80;;;;;;5042106;28;20067;-46
2022/05/21 00:36:16;;;;;;;12.10;2.88;;;10.50;89.80;;;;;;5037178;28;20017;-50
2022/05/21 00:38:42;;;;;;;5.90;1.92;;;10.50;89.90;;;;;;5031181;28;20025;-46
2022/05/21 00:41:10;;;;;;;8.73;3.38;;;10.50;89.80;;;;;;5039889;28;20051;-46
2022/05/21 00:43:56;;;;;;;7.80;2.78;;;10.50;89.90;;;;;;5028147;28;20388;-46
2022/05/21 00:46:22;;;;;;;6.28;2.08;;;10.50;90.00;;;;;;5039520;28;20029;-48
2022/05/21 00:49:01;;;;;;;4.72;2.63;;;10.50;90.20;;;;;;5049398;28;20040;-46
2022/05/21 00:51:30;;;;;;;5.43;2.20;;;10.60;90.30;;;;;;5047703;28;20458;-46
2022/05/21 00:53:59;;;;;;;8.70;3.05;;;10.70;90.50;;;;;;5032328;28;20037;-47
2022/05/21 00:56:30;;;;;;;11.38;3.03;;;10.70;90.40;;;;;;5032863;28;20021;-46
2022/05/21 01:01:45;;;;;;;10.02;3.63;;;10.80;90.50;;;;;;5029677;28;20353;-46
2022/05/21 01:04:12;;;;;;;10.32;3.67;;;10.80;90.60;;;;;;5049204;28;20311;-48
2022/05/21 01:06:38;;;;;;;12.10;4.35;;;10.90;90.50;;;;;;5024523;28;20105;-46
2022/05/21 01:09:04;;;;;;;5.97;4.25;;;10.90;90.50;;;;;;5012114;28;20461;-47
2022/05/21 01:11:30;;;;;;;7.45;4.70;;;10.90;90.60;;;;;;5037414;28;20025;-45
2022/05/21 01:13:56;;;;;;;15.70;6.03;;;10.90;90.80;;;;;;5046721;28;20614;-47
2022/05/21 01:16:22;;;;;;;11.23;5.57;;;10.90;90.80;;;;;;5048075;28;20024;-46
2022/05/21 01:18:47;;;;;;;8.38;5.78;;;10.90;90.80;;;;;;5038358;28;20442;-46
2022/05/21 01:21:13;;;;;;;8.20;6.10;;;10.90;90.80;;;;;;5028013;28;20026;-45
2022/05/21 01:23:39;;;;;;;11.60;5.57;;;10.90;90.80;;;;;;5028977;28;20052;-45
2022/05/21 01:26:18;;;;;;;9.65;6.05;;;11.00;90.80;;;;;;5034341;28;20113;-47
2022/05/21 01:28:43;;;;;;;10.15;5.40;;;11.00;90.60;;;;;;5046374;28;20036;-46
2022/05/21 01:31:10;;;;;;;9.27;5.40;;;11.00;90.80;;;;;;5032445;28;20041;-45
2022/05/21 01:33:38;;;;;;;13.00;6.03;;;11.00;90.70;;;;;;5049226;28;20422;-45
2022/05/21 01:36:06;;;;;;;10.30;5.57;;;11.10;90.70;;;;;;5046215;28;20083;-46
2022/05/21 01:38:33;;;;;;;7.25;5.00;;;11.10;90.60;;;;;;5044384;28;20034;-47
2022/05/21 01:40:59;;;;;;;10.77;5.20;;;11.00;90.50;;;;;;5044440;28;20071;-46
2022/05/21 01:46:10;;;;;;;9.20;4.38;;;11.10;90.50;;;;;;5034932;28;20244;-45
2022/05/21 01:48:36;;;;;;;7.90;4.90;;;11.10;90.30;;;;;;5037403;28;20510;-46
2022/05/21 01:51:02;;;;;;;7.30;4.00;;;11.10;90.30;;;;;;5049141;28;20055;-46
2022/05/21 01:53:29;;;;;;;11.25;5.30;;;11.10;90.30;;;;;;5048707;28;20473;-47
2022/05/21 01:55:57;;;;;;;9.77;5.18;;;11.20;90.40;;;;;;5041458;28;20149;-46
2022/05/21 01:58:23;;;;;;;8.55;5.05;;;11.20;90.40;;;;;;5031434;28;20095;-47
2022/05/21 02:00:49;;;;;;;9.25;4.97;;;11.20;90.10;;;;;;5031730;28;20125;-45
2022/05/21 02:03:15;;;;;;;10.18;5.78;;;11.10;89.90;;;;;;5049604;28;20526;-47
2022/05/21 02:05:44;;;;;;;11.77;6.97;;;11.00;89.80;;;;;;5051192;28;20029;-46
2022/05/21 02:08:11;;;;;;;8.48;5.93;;;11.00;89.90;;;;;;5049471;28;20556;-45
2022/05/21 02:10:37;;;;;;;8.90;6.13;;;11.00;90.00;;;;;;5047394;28;20072;-46
2022/05/21 02:13:05;;;;;;;8.65;5.82;;;10.90;90.00;;;;;;5036778;28;20142;-50
2022/05/21 02:15:31;;;;;;;13.20;6.47;;;10.90;90.10;;;;;;5035398;28;20024;-47
2022/05/21 02:17:57;;;;;;;13.30;6.97;;;10.90;90.20;;;;;;5051239;28;20121;-48
2022/05/21 02:20:27;;;;;;;13.50;7.70;;;10.90;90.10;;;;;;5048991;28;20518;-46
2022/05/21 02:22:53;;;;;;;12.20;7.50;;;10.80;90.20;;;;;;5050756;28;20039;-48
2022/05/21 02:25:18;;;;;;;17.27;8.10;;;10.80;90.30;;;;;;5031605;28;20104;-47
2022/05/21 02:27:44;;;;;;;11.23;7.28;;;10.80;90.30;;;;;;5031151;28;20428;-46
2022/05/21 02:30:10;;;;;;;12.60;6.70;;;10.70;90.30;;;;;;5037349;28;20170;-46
2022/05/21 02:32:36;;;;;;;12.63;7.72;;;10.70;90.40;;;;;;5049756;28;20045;-48
2022/05/21 02:35:01;;;;;;;14.13;8.05;;;10.70;90.50;;;;;;5050767;28;20032;-46
2022/05/21 02:40:13;;;;;;;12.10;7.88;;;10.70;90.80;;;;;;5045715;28;20146;-46
2022/05/21 02:42:45;;;;;;;12.10;9.32;;;10.80;90.90;;;;;;5035185;28;20565;-50
2022/05/21 02:45:15;;;;;;;13.52;8.93;;;10.90;90.90;;;;;;5047282;28;20031;-49
2022/05/21 02:47:40;;;;;;;14.18;9.63;;;10.90;90.90;;;;;;5051475;28;20032;-47
2022/05/21 02:50:07;;;;;;;13.52;10.75;;;10.90;91.10;;;;;;5037654;28;20050;-48
2022/05/21 02:52:33;;;;;;;13.32;9.25;;;10.90;90.90;;;;;;5031632;28;20089;-46
2022/05/21 02:54:59;;;;;;;15.73;9.85;;;10.90;91.00;;;;;;5029565;28;20030;-48
2022/05/21 02:57:25;;;;;;;15.50;11.55;;;10.90;91.00;;;;;;5030239;28;20043;-46
2022/05/21 02:59:51;;;;;;;18.90;11.13;;;11.00;91.10;;;;;;5034857;28;20043;-46
2022/05/21 03:02:18;;;;;;;18.95;12.68;;;11.00;91.00;;;;;;5036333;28;20041;-46
2022/05/21 03:04:44;;;;;;;15.95;11.88;;;11.00;91.00;;;;;;5035950;28;20033;-48
2022/05/21 03:07:12;;;;;;;20.77;13.82;;;11.10;91.10;;;;;;5031705;28;20028;-46
2022/05/21 03:12:22;;;;;;;22.90;15.95;;;11.20;91.10;;;;;;5030393;28;20052;-46
2022/05/21 03:14:48;;;;;;;20.50;16.85;;;11.10;91.20;;;;;;5029261;28;20042;-46
2022/05/21 03:17:14;;;;;;;23.17;16.50;;;11.20;91.30;;;;;;5030029;28;20041;-45
2022/05/21 03:19:39;;;;;;;21.73;16.60;;;11.30;91.30;;;;;;5030092;28;20029;-48
2022/05/21 03:22:05;;;;;;;21.10;15.88;;;11.30;91.20;;;;;;5028548;28;20449;-45
2022/05/21 03:24:33;;;;;;;21.48;16.95;;;11.30;91.40;;;;;;5029059;28;20029;-46
2022/05/21 03:26:59;;;;;;;19.33;16.48;;;11.30;91.30;;;;;;5030819;28;20033;-46
2022/05/21 03:29:25;;;;;;;22.88;17.63;;;11.40;91.40;;;;;;5029674;28;20429;-46
2022/05/21 03:31:51;;;;;;;21.80;18.95;;;11.40;91.40;;;;;;5027634;28;20025;-46
2022/05/21 03:34:17;;;;;;;23.33;18.05;;;11.40;91.50;;;;;;5028983;28;20626;-48
2022/05/21 03:36:42;;;;;;;27.98;21.02;;;11.40;91.50;;;;;;5029828;28;20506;-46
2022/05/21 03:39:08;;;;;;;30.15;21.95;;;11.50;91.50;;;;;;5027751;28;20036;-51
2022/05/21 03:41:36;;;;;;;24.17;19.85;;;11.50;91.60;;;;;;5030715;28;20442;-62
2022/05/21 03:44:03;;;;;;;28.65;23.13;;;11.50;91.60;;;;;;5028381;28;20033;-58
2022/05/21 03:46:32;;;;;;;26.50;23.80;;;11.60;91.70;;;;;;5029605;28;20369;-55
2022/05/21 03:48:58;;;;;;;26.70;23.95;;;11.60;91.80;;;;;;5029460;28;20056;-51
2022/05/21 03:51:23;;;;;;;28.63;22.83;;;11.70;91.70;;;;;;5029667;28;20115;-64
2022/05/21 03:53:49;;;;;;;31.52;24.52;;;11.70;91.80;;;;;;5030881;28;20048;-63
2022/05/21 03:56:14;;;;;;;30.40;23.08;;;11.80;91.80;;;;;;5028165;28;20025;-62
2022/05/21 03:58:42;;;;;;;28.73;23.27;;;11.80;91.80;;;;;;5027859;28;20035;-60
2022/05/21 04:01:08;;;;;;;26.42;23.27;;;11.80;91.80;;;;;;5033260;28;20195;-57
2022/05/21 04:03:34;;;;;;;26.55;23.77;;;11.80;91.90;;;;;;5026502;28;20104;-53
2022/05/21 04:06:00;;;;;;;27.25;23.75;;;11.80;91.90;;;;;;5028623;28;20025;-52
2022/05/21 04:08:25;;;;;;;28.25;24.00;;;11.80;92.00;;;;;;5012943;28;20022;-49
2022/05/21 04:10:51;;;;;;;26.13;23.23;;;11.90;92.10;;;;;;5049182;28;20116;-54
2022/05/21 04:13:17;;;;;;;27.10;22.23;;;11.90;92.10;;;;;;5027120;28;20030;-51
2022/05/21 04:15:44;;;;;;;24.77;22.20;;;11.90;92.10;;;;;;5028596;28;20026;-49
2022/05/21 04:18:09;;;;;;;25.58;22.77;;;11.90;92.10;;;;;;5029799;28;20049;-52
2022/05/21 04:20:35;;;;;;;28.42;24.27;;;11.90;92.20;;;;;;5028955;28;20106;-50
2022/05/21 04:23:01;;;;;;;30.38;26.42;;;12.00;92.20;;;;;;5029436;28;20041;-59
2022/05/21 04:25:26;;;;;;;28.65;25.60;;;12.00;92.20;;;;;;5043534;28;20028;-55
2022/05/21 04:27:52;;;;;;;31.88;25.52;;;12.00;92.30;;;;;;5048787;28;20027;-50
2022/05/21 04:30:25;;;;;;;31.80;27.60;;;12.10;92.30;;;;;;5030475;28;20033;-49
2022/05/21 04:32:52;;;;;;;31.92;28.48;;;12.10;92.20;;;;;;5027586;28;20362;-49
2022/05/21 04:35:18;;;;;;;34.50;28.73;;;12.10;92.20;;;;;;5027620;28;20505;-49
2022/05/21 04:37:44;;;;;;;36.83;29.02;;;12.20;92.20;;;;;;5029684;28;20048;-51
2022/05/21 04:40:14;;;;;;;32.63;29.10;;;12.20;92.20;;;;;;5026517;28;20485;-48
2022/05/21 04:42:40;;;;;;;34.53;28.70;;;12.20;92.30;;;;;;5035517;28;20385;-48
2022/05/21 04:45:07;;;;;;;37.85;29.95;;;12.30;92.30;;;;;;5038876;28;20072;-50
2022/05/21 04:47:33;;;;;;;35.53;28.05;;;12.30;92.30;;;;;;5028624;28;20047;-47
2022/05/21 04:50:01;;;;;;;39.70;29.80;;;12.40;92.30;;;;;;5036057;28;20027;-50
2022/05/21 04:52:27;;;;;;;39.88;29.45;;;12.40;92.30;;;;;;5036795;28;20147;-64
2022/05/21 04:54:52;;;;;;;40.45;29.67;;;12.50;92.30;;;;;;5041729;28;20029;-62
2022/05/21 04:57:18;;;;;;;38.38;28.25;;;12.60;92.20;;;;;;5028279;28;20079;-59
2022/05/21 04:59:46;;;;;;;44.08;29.15;;;12.70;92.10;;;;;;5028402;28;20108;-63
2022/05/21 05:02:12;;;;;;;30.42;26.27;;;12.70;92.10;;;;;;5028065;28;20038;-62
2022/05/21 05:04:38;;;;;;;36.88;27.23;;;12.60;92.00;;;;;;5033684;28;20029;-61
2022/05/21 05:07:10;;;;;;;34.17;25.13;;;12.60;92.10;;;;;;5029281;28;20029;-52
2022/05/21 05:09:44;;;;;;;36.95;25.92;;;12.60;92.10;;;;;;5027960;28;20026;-50
2022/05/21 05:12:12;;;;;;;33.45;25.55;;;12.60;92.20;;;;;;5028910;28;20036;-48
2022/05/21 05:14:38;;;;;;;25.80;22.15;;;12.70;92.20;;;;;;5042156;28;20049;-50
2022/05/21 05:17:05;;;;;;;30.55;23.02;;;12.80;92.20;;;;;;5040635;28;20025;-47
2022/05/21 05:19:31;;;;;;;24.75;19.65;;;12.80;92.20;;;;;;5041298;28;20064;-50
2022/05/21 05:21:57;;;;;;;31.02;17.83;;;12.90;92.10;;;;;;5027477;28;20482;-47
2022/05/21 05:24:23;;;;;;;24.70;15.00;;;12.90;92.10;;;;;;5040810;28;20095;-47
2022/05/21 05:26:49;;;;;;;21.38;14.73;;;12.90;92.10;;;;;;5032490;28;20033;-47
2022/05/21 05:29:17;;;;;;;20.70;12.80;;;13.00;91.90;;;;;;5034585;28;20126;-48
2022/05/21 05:31:43;;;;;;;18.50;11.00;;;13.00;91.90;;;;;;5013707;28;20018;-47
2022/05/21 05:34:08;;;;;;;15.70;9.23;;;13.10;91.70;;;;;;5031555;28;20090;-46
2022/05/21 05:36:34;;;;;;;22.27;10.48;;;13.10;91.60;;;;;;5030071;28;20064;-51
2022/05/21 05:38:59;;;;;;;17.77;8.38;;;13.30;91.50;;;;;;5031542;28;20025;-46
2022/05/21 05:41:27;;;;;;;16.15;7.70;;;13.40;91.20;;;;;;5033864;28;20044;-45
2022/05/21 05:43:56;;;;;;;18.73;6.60;;;13.70;90.80;;;;;;5032852;28;20354;-45
2022/05/21 05:46:23;;;;;;;;;;;13.90;90.30;;;;;;5039869;28;20379;-45
2022/05/21 05:48:49;;;;;;;15.30;5.05;;;14.10;89.70;;;;;;5031551;28;19924;-44
2022/05/21 05:51:17;;;;;;;13.10;4.50;;;14.00;89.00;;;;;;5032195;28;20045;-46
2022/05/21 05:53:43;;;;;;;8.77;3.17;;;14.00;88.80;;;;;;5035388;28;20438;-44
2022/05/21 05:56:09;;;;;;;13.93;4.38;;;14.00;88.50;;;;;;5034129;28;20085;-44
2022/05/21 06:01:20;;;;;;;10.27;2.83;;;13.90;88.60;;;;;;5025903;28;20037;-42
2022/05/21 06:03:45;;;;;;;9.73;3.22;;;13.80;88.40;;;;;;5048808;28;20082;-44
2022/05/21 06:06:11;;;;;;;9.68;3.30;;;13.60;88.30;;;;;;5028476;28;20033;-50
2022/05/21 06:08:37;;;;;;;9.52;2.47;;;13.50;88.00;;;;;;5022908;28;20032;-49
2022/05/21 06:11:03;;;;;;;11.63;2.72;;;13.40;88.50;;;;;;5032488;28;20032;-47
2022/05/21 06:13:28;;;;;;;9.50;2.63;;;13.30;88.90;;;;;;5029060;28;21408;-63
2022/05/21 06:15:54;;;;;;;11.55;2.80;;;13.20;89.00;;;;;;5049292;28;20458;-61
2022/05/21 06:18:20;;;;;;;9.45;3.05;;;13.00;89.20;;;;;;5047292;28;20035;-53
2022/05/21 06:20:48;;;;;;;9.68;2.72;;;12.90;89.60;;;;;;5034913;28;20065;-49
2022/05/21 06:23:17;;;;;;;12.32;3.40;;;13.00;90.00;;;;;;5037277;28;20094;-56
2022/05/21 06:25:42;;;;;;;16.77;3.90;;;13.00;90.00;;;;;;5043899;28;20021;-59
2022/05/21 06:28:08;;;;;;;8.88;2.78;;;13.10;90.00;;;;;;5045210;28;20029;-56
2022/05/21 06:30:38;;;;;;;10.35;2.88;;;13.10;89.90;;;;;;5050942;28;20033;-49
2022/05/21 06:33:19;;;;;;;11.48;3.08;;;13.00;89.70;;;;;;5048527;28;20454;-49
2022/05/21 06:35:46;;;;;;;10.63;2.80;;;13.00;89.80;;;;;;5010789;28;20038;-50
2022/05/21 06:38:12;;;;;;;10.82;2.97;;;13.00;89.90;;;;;;5033799;28;20031;-50
2022/05/21 06:40:39;;;;;;;11.63;3.20;;;12.90;89.90;;;;;;5041723;28;20033;-47
2022/05/21 06:43:05;;;;;;;13.27;3.63;;;12.90;89.90;;;;;;5034809;28;20029;-50
2022/05/21 06:45:32;;;;;;;9.27;3.17;;;13.00;89.80;;;;;;5031780;28;20076;-50
2022/05/21 06:48:03;;;;;;;9.93;2.85;;;13.10;89.70;;;;;;5029490;28;20030;-49
2022/05/21 06:50:29;;;;;;;10.55;2.60;;;13.20;89.50;;;;;;5048790;28;20025;-46
2022/05/21 06:52:57;;;;;;;8.63;2.75;;;13.10;89.40;;;;;;5037653;28;20087;-46
2022/05/21 06:55:23;;;;;;;12.73;3.03;;;13.00;89.20;;;;;;5030639;28;20044;-48
2022/05/21 06:57:50;;;;;;;11.40;3.20;;;13.00;89.30;;;;;;5030258;28;20025;-45
2022/05/21 07:00:21;;;;;;;10.18;2.60;;;13.00;89.40;;;;;;5029585;28;20021;-46
2022/05/21 07:02:48;;;;;;;16.10;3.22;;;13.00;89.30;;;;;;5049520;28;20028;-45
2022/05/21 07:07:59;;;;;;;10.43;3.60;;;13.30;89.40;;;;;;5051427;28;20457;-44
2022/05/21 07:10:28;;;;;;;8.30;2.78;;;13.60;89.50;;;;;;5030343;28;20029;-43
2022/05/21 07:12:54;;;;;;;9.60;2.40;;;13.60;88.60;;;;;;5041846;28;20327;-43
2022/05/21 07:15:20;;;;;;;7.43;2.97;;;13.60;87.70;;;;;;5032672;28;20303;-42
2022/05/21 07:17:45;;;;;;;15.70;3.65;;;13.40;87.90;;;;;;5040079;28;20076;-43
2022/05/21 07:20:16;;;;;;;11.88;3.20;;;13.20;88.00;;;;;;5044496;28;20018;-43
2022/05/21 07:22:43;;;;;;;11.40;2.80;;;13.10;88.30;;;;;;5036528;28;20453;-42
2022/05/21 07:25:12;;;;;;;15.20;3.53;;;13.20;88.70;;;;;;5032283;28;20717;-41
2022/05/21 07:27:38;;;;;;;14.80;3.83;;;13.30;88.80;;;;;;5030188;28;20033;-41
2022/05/21 07:30:05;;;;;;;14.02;3.17;;;13.10;88.30;;;;;;5029747;28;20155;-42
2022/05/21 07:32:30;;;;;;;11.77;3.17;;;13.20;88.80;;;;;;5030821;28;20040;-43
2022/05/21 07:35:04;;;;;;;14.48;4.15;;;13.30;89.00;;;;;;5029854;28;20029;-41
2022/05/21 07:37:30;;;;;;;11.32;2.67;;;13.40;88.40;;;;;;5036330;28;20116;-41
2022/05/21 07:39:55;;;;;;;10.05;2.65;;;13.50;88.00;;;;;;5044707;28;20055;-43
2022/05/21 07:42:21;;;;;;;12.63;3.80;;;13.60;87.70;;;;;;5048128;28;20056;-41
2022/05/21 07:44:49;;;;;;;8.25;2.60;;;13.50;87.30;;;;;;5031872;28;20030;-43
2022/05/21 07:47:15;;;;;;;11.88;2.97;;;13.40;87.50;;;;;;5028581;28;20278;-44
2022/05/21 07:49:40;;;;;;;9.50;2.67;;;13.30;87.50;;;;;;5030525;28;20096;-41
2022/05/21 07:52:06;;;;;;;16.42;3.63;;;13.30;87.80;;;;;;5043873;28;20055;-42
2022/05/21 07:54:32;;;;;;;7.63;2.13;;;13.40;87.60;;;;;;5048532;28;20049;-45
2022/05/21 07:56:59;;;;;;;13.90;3.20;;;13.50;87.70;;;;;;5036003;28;20110;-44
2022/05/21 07:59:25;;;;;;;9.82;2.42;;;13.60;87.20;;;;;;5040410;28;20683;-43
2022/05/21 08:01:50;;;;;;;9.63;2.40;;;13.70;87.60;;;;;;5041920;28;20120;-41
2022/05/21 08:04:17;;;;;;;7.45;2.30;;;13.90;87.20;;;;;;5029697;28;20052;-43
2022/05/21 08:06:43;;;;;;;15.25;2.97;;;13.70;86.00;;;;;;5035832;28;20021;-42
2022/05/21 08:09:08;;;;;;;12.65;3.05;;;13.80;86.60;;;;;;5019848;28;20029;-46
2022/05/21 08:11:37;;;;;;;6.70;3.05;;;13.80;85.90;;;;;;5048976;28;20040;-43
2022/05/21 08:14:03;;;;;;;12.68;3.00;;;13.80;85.60;;;;;;5046161;28;20033;-43
2022/05/21 08:16:29;;;;;;;5.95;2.00;;;13.90;85.80;;;;;;5036465;28;20100;-42
2022/05/21 08:18:57;;;;;;;8.55;3.42;;;14.00;85.00;;;;;;5029604;28;20513;-45
2022/05/21 08:21:23;;;;;;;9.00;2.50;;;14.00;84.70;;;;;;5027806;28;20137;-45
2022/05/21 08:29:19;;;;;;;8.70;2.50;;;14.40;83.70;;;;;;5044170;28;20530;-45
2022/05/21 08:31:45;;;;;;;11.38;2.60;;;14.50;83.60;;;;;;5015963;28;20040;-45
2022/05/21 08:34:10;;;;;;;9.98;2.97;;;15.10;84.00;;;;;;5032781;28;20017;-43
2022/05/21 08:36:36;;;;;;;8.38;2.88;;;15.30;81.70;;;;;;5043787;28;20033;-46
2022/05/21 08:39:02;;;;;;;10.07;3.10;;;15.70;79.40;;;;;;5041381;28;20039;-43
2022/05/21 08:41:32;;;;;;;12.65;3.30;;;15.70;80.20;;;;;;5039574;28;20699;-44
2022/05/21 08:43:57;;;;;;;;;;;15.70;79.70;;;;;;5034725;28;20038;-46
2022/05/21 08:46:45;;;;;;;11.60;2.72;;;15.70;79.50;;;;;;5029247;28;19916;-43
2022/05/21 08:49:20;;;;;;;9.80;2.67;;;15.40;81.00;;;;;;5038108;28;20587;-43
2022/05/21 08:51:53;;;;;;;10.43;4.10;;;15.70;80.90;;;;;;5038837;28;20049;-48
2022/05/21 08:54:25;;;;;;;9.52;3.25;;;15.90;79.70;;;;;;5028256;28;20041;-43
2022/05/21 08:56:53;;;;;;;14.98;3.97;;;15.60;79.60;;;;;;5019636;28;20025;-43
2022/05/21 08:59:22;;;;;;;14.30;3.45;;;15.30;80.90;;;;;;5027692;28;20339;-43
2022/05/21 09:01:47;;;;;;;11.00;2.72;;;14.90;81.40;;;;;;5028549;28;20040;-43
2022/05/21 09:04:14;;;;;;;15.15;2.97;;;14.60;81.60;;;;;;5027385;28;20358;-48
2022/05/21 09:06:52;;;;;;;10.07;3.67;;;14.40;81.70;;;;;;5009550;28;20037;-43
2022/05/21 09:09:38;;;;;;;17.05;4.25;;;14.50;82.50;;;;;;5020434;28;20025;-44
2022/05/21 09:12:17;;;;;;;11.57;3.05;;;15.30;82.90;;;;;;5049054;28;20025;-43
2022/05/21 09:14:44;;;;;;;8.68;2.38;;;15.80;79.90;;;;;;5028175;28;20034;-45
2022/05/21 09:17:16;;;;;;;10.07;2.95;;;16.00;79.00;;;;;;5048936;28;20024;-44
2022/05/21 09:20:01;;;;;;;14.13;4.13;;;15.90;80.10;;;;;;5035069;28;20060;-46
2022/05/21 09:22:27;;;;;;;13.18;3.20;;;16.10;79.90;;;;;;5029032;28;20033;-44
2022/05/21 09:24:59;;;;;;;11.63;3.75;;;16.40;77.40;;;;;;5025897;28;20048;-44
2022/05/21 09:27:32;;;;;;;9.88;3.17;;;16.80;76.00;;;;;;5025678;28;20575;-46
2022/05/21 09:30:22;;;;;;;11.82;2.40;;;17.30;75.40;;;;;;5035071;28;20022;-44
2022/05/21 09:32:52;;;;;;;8.00;2.28;;;17.70;71.50;;;;;;5027878;28;20108;-45
2022/05/21 09:35:23;;;;;;;;;;;18.00;71.10;;;;;;5034828;28;20103;-45
2022/05/21 09:37:49;;;;;;;8.88;2.45;;;18.00;71.40;;;;;;5027900;28;19905;-47
2022/05/21 09:40:36;;;;;;;10.85;2.22;;;18.10;70.10;;;;;;5027460;28;20502;-43
2022/05/21 09:46:21;;;;;;;9.90;2.88;;;18.00;73.10;;;;;;5026969;28;20024;-47
2022/05/21 09:48:47;;;;;;;7.50;1.88;;;17.60;70.70;;;;;;5015723;28;20040;-45
2022/05/21 09:51:29;;;;;;;10.20;2.78;;;17.20;71.80;;;;;;5027486;28;20115;-46
2022/05/21 09:53:57;;;;;;;7.32;2.92;;;17.20;72.10;;;;;;5026860;28;20037;-45
2022/05/21 09:56:29;;;;;;;11.98;2.47;;;17.40;72.90;;;;;;5029069;28;20777;-45
2022/05/21 09:59:15;;;;;;;9.23;2.63;;;17.30;71.60;;;;;;5027676;28;20035;-45
2022/05/21 10:01:46;;;;;;;10.10;2.92;;;17.00;72.80;;;;;;5022617;28;20107;-44
2022/05/21 10:04:36;;;;;;;12.50;3.33;;;16.80;74.40;;;;;;5027365;28;20038;-45
2022/05/21 10:07:03;;;;;;;;;;;16.40;73.80;;;;;;5028154;28;20461;-47
2022/05/21 10:12:41;;;;;;;9.63;2.65;;;15.90;75.70;;;;;;5011367;28;20040;-46
2022/05/21 10:15:17;;;;;;;13.02;2.83;;;16.40;74.40;;;;;;5030426;28;20029;-44
2022/05/21 10:17:59;;;;;;;8.15;2.30;;;16.90;71.90;;;;;;5029916;28;20043;-48
2022/05/21 10:20:37;;;;;;;10.50;2.95;;;17.60;70.90;;;;;;5032210;28;20029;-44
2022/05/21 10:23:30;;;;;;;12.43;3.03;;;18.10;69.10;;;;;;5030792;28;20025;-46
2022/05/21 10:26:01;;;;;;;11.30;2.90;;;17.80;70.00;;;;;;5013255;28;20061;-44
2022/05/21 10:28:41;;;;;;;9.75;2.65;;;16.90;72.00;;;;;;5026444;28;20021;-47
2022/05/21 10:31:27;;;;;;;10.32;2.97;;;16.40;74.40;;;;;;5031260;28;20029;-45
2022/05/21 10:34:19;;;;;;;12.43;3.30;;;16.80;74.90;;;;;;5023986;28;20040;-45
2022/05/21 10:36:59;;;;;;;9.20;2.45;;;16.90;72.00;;;;;;5027799;28;20045;-45
2022/05/21 10:39:43;;;;;;;11.13;3.38;;;16.50;73.40;;;;;;5036065;28;20082;-45
2022/05/21 10:42:27;;;;;;;12.75;3.67;;;16.60;73.60;;;;;;5027920;28;20037;-47
2022/05/21 10:45:08;;;;;;;12.25;3.85;;;17.10;73.70;;;;;;5030105;28;20029;-46
2022/05/21 10:48:12;;;;;;;15.10;2.88;;;17.10;72.30;;;;;;5043536;28;20432;-46
2022/05/21 10:50:51;;;;;;;7.07;2.28;;;17.20;70.80;;;;;;5019092;28;20055;-45
2022/05/21 10:53:17;;;;;;;11.05;3.42;;;17.90;70.00;;;;;;5031647;28;20546;-44
2022/05/21 10:56:02;;;;;;;9.77;2.60;;;18.10;65.80;;;;;;5035376;28;20055;-44
2022/05/21 10:58:37;;;;;;;7.65;2.65;;;18.20;66.30;;;;;;5030537;28;20404;-45
2022/05/21 11:01:08;;;;;;;7.28;2.53;;;18.30;65.10;;;;;;5029640;28;20037;-45
2022/05/21 11:03:48;;;;;;;10.18;2.38;;;18.40;66.90;;;;;;5029161;28;20090;-45
2022/05/21 11:06:24;;;;;;;6.35;2.22;;;18.40;64.60;;;;;;5030412;28;20056;-46
2022/05/21 11:09:08;;;;;;;9.18;3.55;;;18.60;65.50;;;;;;5029124;28;20025;-44
2022/05/21 11:11:57;;;;;;;8.20;2.10;;;18.60;65.40;;;;;;5031241;28;20044;-44
2022/05/21 11:14:47;;;;;;;11.57;2.90;;;18.10;63.40;;;;;;5028215;28;20021;-44
2022/05/21 11:17:19;;;;;;;9.70;2.20;;;18.00;65.90;;;;;;5030380;28;20034;-46
2022/05/21 11:19:52;;;;;;;9.02;2.40;;;17.90;67.00;;;;;;5029850;28;20029;-47
2022/05/21 11:22:29;;;;;;;8.73;2.42;;;18.30;67.40;;;;;;5029576;28;20521;-43
2022/05/21 11:25:17;;;;;;;10.80;2.72;;;17.40;67.10;;;;;;5043260;28;20119;-44
2022/05/21 11:28:25;;;;;;;8.00;2.20;;;16.90;69.10;;;;;;5048665;28;20075;-45
2022/05/21 11:31:00;;;;;;;6.63;2.33;;;17.30;68.70;;;;;;5017058;28;20018;-44
2022/05/21 11:39:04;;;;;;;10.25;3.10;;;18.10;67.00;;;;;;5028401;28;20160;-44
2022/05/21 11:41:53;;;;;;;11.73;2.35;;;18.20;65.30;;;;;;5028667;28;20120;-43
2022/05/21 11:47:08;;;;;;;11.32;2.83;;;18.00;67.80;;;;;;5027228;28;20048;-45
2022/05/21 11:49:38;;;;;;;11.82;2.50;;;18.30;68.70;;;;;;5028119;28;20044;-44
2022/05/21 11:52:25;;;;;;;11.00;3.03;;;18.20;65.30;;;;;;5030348;28;20340;-44
2022/05/21 11:54:51;;;;;;;11.30;3.35;;;18.10;67.20;;;;;;5028477;28;20035;-45
2022/05/21 11:57:37;;;;;;;13.75;2.83;;;18.10;67.20;;;;;;5028626;28;20112;-44
2022/05/21 12:00:05;;;;;;;10.05;3.08;;;17.50;67.50;;;;;;5045777;28;20028;-46
2022/05/21 12:02:34;;;;;;;11.40;3.63;;;17.10;68.30;;;;;;5050324;28;20024;-44
2022/05/21 12:05:08;;;;;;;8.23;2.85;;;17.40;68.70;;;;;;5035650;28;20032;-44
2022/05/21 12:07:48;;;;;;;6.82;1.92;;;17.60;67.00;;;;;;5030255;28;20378;-43
2022/05/21 12:10:28;;;;;;;12.82;3.10;;;17.50;68.40;;;;;;5033371;28;20037;-44
2022/05/21 12:13:16;;;;;;;10.55;3.08;;;17.60;68.90;;;;;;5027061;28;20040;-46
2022/05/21 12:15:47;;;;;;;9.50;3.17;;;17.60;69.10;;;;;;5029043;28;20105;-45
2022/05/21 12:18:41;;;;;;;10.00;1.85;;;17.70;70.10;;;;;;5028759;28;20033;-44
2022/05/21 12:21:13;;;;;;;8.68;2.80;;;17.40;67.30;;;;;;5029884;28;20026;-44
2022/05/21 12:23:41;;;;;;;10.05;3.13;;;16.90;68.50;;;;;;5034835;28;20037;-45
2022/05/21 12:26:21;;;;;;;6.20;2.28;;;16.80;69.70;;;;;;5036508;28;20026;-44
2022/05/21 12:28:56;;;;;;;7.30;2.28;;;17.00;69.00;;;;;;5035764;28;20568;-44
2022/05/21 12:31:35;;;;;;;10.52;2.83;;;16.90;69.40;;;;;;5049682;28;20028;-44
2022/05/21 12:34:11;;;;;;;10.23;3.08;;;17.10;69.80;;;;;;5035565;28;20025;-43
2022/05/21 12:36:43;;;;;;;10.63;2.95;;;16.70;69.40;;;;;;5028371;28;20460;-44
2022/05/21 12:39:11;;;;;;;12.15;3.25;;;16.50;69.60;;;;;;5033400;28;20029;-44
2022/05/21 12:41:42;;;;;;;14.57;3.28;;;16.40;72.00;;;;;;5047080;28;20071;-46
2022/05/21 12:44:08;;;;;;;10.02;1.88;;;16.50;70.90;;;;;;5030647;28;20040;-43
2022/05/21 12:46:35;;;;;;;12.75;3.60;;;16.90;70.30;;;;;;5039484;28;20041;-45
2022/05/21 12:49:10;;;;;;;10.38;2.38;;;16.80;69.80;;;;;;5037170;28;20029;-44
2022/05/21 12:51:48;;;;;;;6.82;2.20;;;16.60;71.10;;;;;;5044713;28;20382;-44
2022/05/21 12:54:24;;;;;;;14.93;3.15;;;16.60;71.90;;;;;;5048482;28;20480;-44
2022/05/21 12:56:52;;;;;;;12.55;2.95;;;16.90;72.90;;;;;;5032183;28;20049;-44
2022/05/21 12:59:28;;;;;;;14.18;3.78;;;17.10;72.10;;;;;;5027427;28;20025;-47
2022/05/21 13:02:11;;;;;;;9.82;2.47;;;17.20;69.70;;;;;;5029388;28;20535;-47
2022/05/21 13:04:41;;;;;;;11.95;3.53;;;17.40;71.00;;;;;;5034458;28;20032;-43
2022/05/21 13:07:21;;;;;;;11.07;2.80;;;17.00;71.60;;;;;;5028082;28;20029;-43
2022/05/21 13:10:03;;;;;;;7.25;2.10;;;17.10;69.90;;;;;;5043588;28;20476;-45
2022/05/21 13:12:39;;;;;;;8.70;3.35;;;17.10;69.00;;;;;;5025446;28;20048;-44
2022/05/21 13:15:13;;;;;;;8.48;2.25;;;16.70;70.20;;;;;;5027813;28;20025;-44
2022/05/21 13:17:50;;;;;;;13.82;2.60;;;17.10;71.30;;;;;;5028594;28;20369;-43
2022/05/21 13:20:28;;;;;;;13.15;2.20;;;17.00;70.60;;;;;;5009154;28;20030;-45
2022/05/21 13:23:16;;;;;;;11.27;3.20;;;16.90;69.50;;;;;;5036809;28;20044;-45
2022/05/21 13:25:42;;;;;;;10.00;2.90;;;16.90;69.70;;;;;;5046424;28;20033;-45
2022/05/21 13:28:17;;;;;;;6.50;2.25;;;16.90;70.60;;;;;;5044762;28;20021;-44
2022/05/21 13:30:51;;;;;;;9.35;1.98;;;16.90;70.40;;;;;;5030520;28;20116;-44